Time;durP1;ratioP1;P1;durP2;ratioP2;P2;SDS_P1;SDS_P2;PMS_P1;PMS_P2;Temp;Humidity;BMP_temperature;BMP_pressure;BME280_temperature;BME280_humidity;BME280_pressure;Samples;Min_cycle;Max_cycle;Signal;HPM_P1;HPM_P2
2021/03/22 00:00:41;;;;;;;;;;;;;;;-0.39;100.00;98393.08;1731141;83;20152;-72
2021/03/22 00:03:10;;;;;;;;;;;;;;;-0.39;100.00;98402.30;1731161;83;20159;-72
2021/03/22 00:05:38;;;;;;;;;;;;;;;-0.40;100.00;98393.28;1700585;83;20167;-72
2021/03/22 00:08:06;;;;;;;;;;;;;;;-0.42;100.00;98398.75;1731163;83;21425;-72
2021/03/22 00:10:35;;;;;;;;;;;;;;;-0.46;100.00;98394.42;1731114;83;20196;-72
2021/03/22 00:13:04;;;;;;;;;;;;;;;-0.50;100.00;98389.78;1731152;83;20588;-72
2021/03/22 00:15:35;;;;;;;;;;;;;;;-0.52;100.00;98392.61;1731206;83;20207;-72
2021/03/22 00:18:05;;;;;;;;;;;;;;;-0.53;100.00;98387.05;1731448;82;20219;-72
2021/03/22 00:20:34;;;;;;;;;;;;;;;-0.55;100.00;98377.22;1731061;83;21230;-72
2021/03/22 00:23:02;;;;;;;;;;;;;;;-0.56;100.00;98369.55;1731234;83;20116;-72
2021/03/22 00:25:31;;;;;;;;;;;;;;;-0.56;100.00;98368.23;1731329;83;20506;-72
2021/03/22 00:27:59;;;;;;;;;;;;;;;-0.58;100.00;98366.31;1731271;83;20152;-72
2021/03/22 00:30:29;;;;;;;;;;;;;;;-0.59;100.00;98363.36;1731301;83;20127;-72
2021/03/22 00:32:57;;;;;;;;;;;;;;;-0.60;100.00;98361.75;1731313;83;21230;-72
2021/03/22 00:35:26;;;;;;;;;;;;;;;-0.60;100.00;98355.16;1731279;83;20656;-72
2021/03/22 00:37:53;;;;;;;;;;;;;;;-0.59;100.00;98354.94;1690301;84;20487;-72
2021/03/22 00:40:25;;;;;;;;;;;;;;;-0.60;100.00;98353.84;1707494;84;21106;-72
2021/03/22 00:42:53;;;;;;;;;;;;;;;-0.62;100.00;98351.41;1707399;84;20239;-72
2021/03/22 00:45:21;;;;;;;;;;;;;;;-0.62;100.00;98351.92;1707436;84;21153;-72
2021/03/22 00:47:49;;;;;;;;;;;;;;;-0.63;100.00;98349.80;1707367;84;20243;-72
2021/03/22 00:50:20;;;;;;;;;;;;;;;-0.63;100.00;98350.32;1707406;84;20143;-72
2021/03/22 00:52:48;;;;;;;;;;;;;;;-0.63;100.00;98352.95;1689021;84;20223;-72
2021/03/22 00:55:16;;;;;;;;;;;;;;;-0.59;100.00;98354.13;1707364;84;20147;-72
2021/03/22 00:57:43;;;;;;;;;;;;;;;-0.59;100.00;98358.09;1707405;84;21214;-72
2021/03/22 01:00:21;;;;;;;;;;;;;;;-0.59;100.00;98353.61;1707349;84;20136;-72
2021/03/22 01:02:49;;;;;;;;;;;;;;;-0.62;100.00;98351.41;1707366;84;20159;-72
2021/03/22 01:05:18;;;;;;;;;;;;;;;-0.65;100.00;98347.89;1707454;84;20502;-72
2021/03/22 01:07:46;;;;;;;;;;;;;;;-0.66;100.00;98347.08;1707453;84;20517;-72
2021/03/22 01:10:29;;;;;;;;;;;;;;;-0.69;100.00;98334.30;1707391;84;21349;-72
2021/03/22 01:12:56;;;;;;;;;;;;;;;-0.70;100.00;98337.17;1707332;84;20184;-72
2021/03/22 01:15:24;;;;;;;;;;;;;;;-0.72;100.00;98334.73;1707307;84;20223;-72
2021/03/22 01:17:52;;;;;;;;;;;;;;;-0.72;100.00;98332.09;1707492;84;20578;-73
2021/03/22 01:20:27;;;;;;;;;;;;;;;-0.73;100.00;98331.81;1707384;84;20237;-73
2021/03/22 01:22:55;;;;;;;;;;;;;;;-0.73;100.00;98331.81;1707258;84;21440;-72
2021/03/22 01:25:24;;;;;;;;;;;;;;;-0.76;100.00;98338.83;1707217;84;20219;-72
2021/03/22 01:27:54;;;;;;;;;;;;;;;-0.76;100.00;98337.52;1707232;83;20311;-72
2021/03/22 01:30:25;;;;;;;;;;;;;;;-0.79;100.00;98341.05;1707400;84;20132;-72
2021/03/22 01:32:53;;;;;;;;;;;;;;;-0.79;100.00;98343.17;1707220;83;20147;-72
2021/03/22 01:35:21;;;;;;;;;;;;;;;-0.78;100.00;98338.23;1707315;84;21390;-72
2021/03/22 01:37:49;;;;;;;;;;;;;;;-0.76;100.00;98337.52;1724436;83;20219;-72
2021/03/22 01:40:54;;;;;;;;;;;;;;;-0.75;100.00;98340.95;1731209;83;20139;-72
2021/03/22 01:43:42;;;;;;;;;;;;;;;-0.76;100.00;98334.88;1731246;83;20139;-72
2021/03/22 01:46:10;;;;;;;;;;;;;;;-0.76;100.00;98335.36;1731361;83;20489;-72
2021/03/22 01:48:38;;;;;;;;;;;;;;;-0.76;100.00;98334.05;1700767;83;21383;-72
2021/03/22 01:51:06;;;;;;;;;;;;;;;-0.75;100.00;98333.05;1731231;83;20135;-72
2021/03/22 01:53:34;;;;;;;;;;;;;;;-0.76;100.00;98329.61;1731229;83;20135;-72
2021/03/22 01:56:24;;;;;;;;;;;;;;;-0.75;100.00;98324.63;1731173;83;20139;-72
2021/03/22 01:58:51;;;;;;;;;;;;;;;-0.75;100.00;98323.82;1665804;84;20146;-72
2021/03/22 02:01:21;;;;;;;;;;;;;;;-0.75;100.00;98327.26;1665697;86;22276;-72
2021/03/22 02:03:50;;;;;;;;;;;;;;;-0.77;100.00;98320.06;1665553;86;20264;-72
2021/03/22 02:06:18;;;;;;;;;;;;;;;-0.75;100.00;98323.82;1665497;86;20150;-72
2021/03/22 02:08:54;;;;;;;;;;;;;;;-0.76;100.00;98312.48;1665508;86;20233;-72
2021/03/22 02:11:24;;;;;;;;;;;;;;;-0.77;100.00;98312.68;1665631;86;20249;-72
2021/03/22 02:13:56;;;;;;;;;;;;;;;-0.79;100.00;98310.24;1665660;86;20808;-71
2021/03/22 02:16:35;;;;;;;;;;;;;;;-0.79;100.00;98316.83;1666154;86;20146;-71
2021/03/22 02:19:41;;;;;;;;;;;;;;;-0.79;100.00;98313.39;1665736;86;20524;-72
2021/03/22 02:22:15;;;;;;;;;;;;;;;-0.80;100.00;98307.32;1665631;86;20242;-72
2021/03/22 02:25:03;;;;;;;;;;;;;;;-0.82;100.00;98308.55;1665580;86;20236;-72
2021/03/22 02:28:02;;;;;;;;;;;;;;;-0.79;100.00;98306.80;1854858;77;20174;-71
2021/03/22 02:30:36;;;;;;;;;;;;;;;-0.82;100.00;98309.35;1791016;78;20146;-73
2021/03/22 02:33:37;;;;;;;;;;;;;;;-0.86;100.00;98302.88;1822640;78;21369;-73
2021/03/22 02:36:10;;;;;;;;;;;;;;;-0.88;100.00;98300.47;1822608;78;20667;-73
2021/03/22 02:38:42;;;;;;;;;;;;;;;-0.88;100.00;98299.16;1822620;78;20132;-72
2021/03/22 02:41:15;;;;;;;;;;;;;;;-0.90;100.00;98289.34;1822585;78;20109;-73
2021/03/22 02:43:43;;;;;;;;;;;;;;;-0.89;100.00;98291.45;1822667;78;20164;-73
2021/03/22 02:46:10;;;;;;;;;;;;;;;-0.92;100.00;98290.05;1822615;78;22103;-72
2021/03/22 02:48:38;;;;;;;;;;;;;;;-0.91;100.00;98290.85;1822566;78;20495;-73
2021/03/22 02:51:11;;;;;;;;;;;;;;;-0.92;100.00;98289.25;1822659;78;20133;-73
2021/03/22 02:53:45;;;;;;;;;;;;;;;-0.90;100.00;98291.16;1672378;85;20174;-73
2021/03/22 02:56:17;;;;;;;;;;;;;;;-0.88;100.00;98288.63;1686383;85;20226;-73
2021/03/22 02:58:48;;;;;;;;;;;;;;;-0.86;100.00;98284.44;1716725;83;22094;-73
2021/03/22 03:01:20;;;;;;;;;;;;;;;-0.87;100.00;98284.95;1716592;83;20530;-74
2021/03/22 03:03:51;;;;;;;;;;;;;;;-0.85;100.00;98290.02;1716682;83;20155;-73
2021/03/22 03:06:19;;;;;;;;;;;;;;;-0.81;100.00;98287.25;1716699;83;20569;-71
2021/03/22 03:08:47;;;;;;;;;;;;;;;-0.79;100.00;98286.53;1716769;83;20248;-72
2021/03/22 03:11:15;;;;;;;;;;;;;;;-0.75;100.00;98285.61;1716655;83;21211;-72
2021/03/22 03:13:43;;;;;;;;;;;;;;;-0.71;100.00;98287.62;1716623;83;20176;-72
2021/03/22 03:16:10;;;;;;;;;;;;;;;-0.70;100.00;98279.20;1716665;83;20156;-71
2021/03/22 03:18:38;;;;;;;;;;;;;;;-0.70;100.00;98280.52;1716622;83;20541;-71
2021/03/22 03:21:05;;;;;;;;;;;;;;;-0.71;100.00;98273.61;1716783;83;20502;-71
2021/03/22 03:23:33;;;;;;;;;;;;;;;-0.71;100.00;98274.44;1716569;83;21391;-71
2021/03/22 03:26:01;;;;;;;;;;;;;;;-0.68;100.00;98275.84;1716351;83;20278;-72
2021/03/22 03:28:29;;;;;;;;;;;;;;;-0.68;100.00;98269.26;1716664;83;20530;-71
2021/03/22 03:30:58;;;;;;;;;;;;;;;-0.69;100.00;98269.74;1746590;80;20151;-72
2021/03/22 03:33:26;;;;;;;;;;;;;;;-0.67;100.00;98274.30;1783644;80;20229;-72
2021/03/22 03:35:53;;;;;;;;;;;;;;;-0.67;100.00;98272.98;1783603;80;21364;-72
2021/03/22 03:38:21;;;;;;;;;;;;;;;-0.65;100.00;98270.14;1783106;80;20265;-72
2021/03/22 03:40:49;;;;;;;;;;;;;;;-0.62;100.00;98274.98;1782983;80;20131;-72
2021/03/22 03:43:16;;;;;;;;;;;;;;;-0.60;100.00;98270.83;1783027;80;20135;-72
2021/03/22 03:45:46;;;;;;;;;;;;;;;-0.60;100.00;98275.58;1783011;80;20230;-72
2021/03/22 03:48:23;;;;;;;;;;;;;;;-0.60;100.00;98269.51;1783178;80;21363;-72
2021/03/22 03:50:59;;;;;;;;;;;;;;;-0.59;100.00;98268.48;1782984;80;20147;-72
2021/03/22 03:53:27;;;;;;;;;;;;;;;-0.60;100.00;98266.88;1783086;80;20386;-71
2021/03/22 03:55:56;;;;;;;;;;;;;;;-0.60;100.00;98266.88;1782938;80;20119;-71
2021/03/22 03:58:24;;;;;;;;;;;;;;;-0.61;100.00;98273.14;1783072;80;20160;-71
2021/03/22 04:00:52;;;;;;;;;;;;;;;-0.63;100.00;98268.63;1783023;80;21376;-72
2021/03/22 04:03:27;;;;;;;;;;;;;;;-0.65;100.00;98272.27;1782975;80;20136;-71
2021/03/22 04:05:57;;;;;;;;;;;;;;;-0.70;100.00;98272.09;1782663;80;20502;-71
2021/03/22 04:08:26;;;;;;;;;;;;;;;-0.71;100.00;98269.66;1782695;80;20525;-72
2021/03/22 04:10:55;;;;;;;;;;;;;;;-0.77;100.00;98273.16;1746252;82;20138;-72
2021/03/22 04:13:24;;;;;;;;;;;;;;;-0.87;100.00;98278.37;1746193;82;21228;-71
2021/03/22 04:15:53;;;;;;;;;;;;;;;-0.93;100.00;98277.08;1746252;82;20226;-71
2021/03/22 04:18:22;;;;;;;;;;;;;;;-0.96;100.00;98284.09;1742061;82;20122;-72
2021/03/22 04:20:50;;;;;;;;;;;;;;;-0.99;100.00;98279.25;1746307;82;20130;-72
2021/03/22 04:23:18;;;;;;;;;;;;;;;-1.04;100.00;98274.61;1746193;82;20154;-72
2021/03/22 04:25:45;;;;;;;;;;;;;;;-1.06;100.00;98271.37;1746113;82;21199;-73
2021/03/22 04:28:12;;;;;;;;;;;;;;;-1.06;100.00;98271.89;1749190;82;20150;-72
2021/03/22 04:30:40;;;;;;;;;;;;;;;-1.07;100.00;98271.60;1749375;82;20150;-72
2021/03/22 04:33:08;;;;;;;;;;;;;;;-1.07;100.00;98275.03;1749516;82;20815;-72
2021/03/22 04:35:35;;;;;;;;;;;;;;;-1.10;100.00;98276.27;1749417;82;20114;-72
2021/03/22 04:38:03;;;;;;;;;;;;;;;-1.10;100.00;98276.27;1749400;82;21374;-72
2021/03/22 04:40:31;;;;;;;;;;;;;;;-1.11;100.00;98277.27;1749345;82;20165;-72
2021/03/22 04:42:58;;;;;;;;;;;;;;;-1.11;100.00;98275.15;1749470;82;20241;-72
2021/03/22 04:45:27;;;;;;;;;;;;;;;-1.14;100.00;98277.69;1749384;82;20134;-72
2021/03/22 04:47:55;;;;;;;;;;;;;;;-1.17;100.00;98276.80;1749374;82;20146;-72
2021/03/22 04:50:25;;;;;;;;;;;;;;;-1.16;100.00;98274.97;1749425;82;22238;-72
2021/03/22 04:52:52;;;;;;;;;;;;;;;-1.20;100.00;98274.59;1749342;82;20257;-72
2021/03/22 04:55:21;;;;;;;;;;;;;;;-1.21;100.00;98283.48;1749343;82;20113;-72
2021/03/22 04:57:49;;;;;;;;;;;;;;;-1.19;100.00;98289.36;1749391;82;20606;-72
2021/03/22 05:00:24;;;;;;;;;;;;;;;-1.19;100.00;98284.61;1749428;82;20126;-72
2021/03/22 05:02:54;;;;;;;;;;;;;;;-1.26;100.00;98284.63;1749397;82;21201;-73
2021/03/22 05:05:25;;;;;;;;;;;;;;;-1.26;100.00;98289.09;1749360;82;20122;-73
2021/03/22 05:07:53;;;;;;;;;;;;;;;-1.28;100.00;98295.06;1749346;82;20153;-73
2021/03/22 05:10:26;;;;;;;;;;;;;;;-1.32;100.00;98290.73;1749463;82;20114;-73
2021/03/22 05:12:55;;;;;;;;;;;;;;;-1.32;100.00;98287.59;1749376;82;20142;-73
2021/03/22 05:15:24;;;;;;;;;;;;;;;-1.30;100.00;98291.31;1749418;82;21427;-73
2021/03/22 05:17:56;;;;;;;;;;;;;;;-1.27;100.00;98295.36;1749303;82;20142;-72
2021/03/22 05:20:28;;;;;;;;;;;;;;;-1.24;100.00;98297.08;1749576;82;20125;-71
2021/03/22 05:22:55;;;;;;;;;;;;;;;-1.24;100.00;98297.08;1749760;82;20114;-72
2021/03/22 05:25:26;;;;;;;;;;;;;;;-1.24;100.00;98296.28;1749305;82;20161;-71
2021/03/22 05:27:53;;;;;;;;;;;;;;;-1.27;100.00;98290.09;1749455;82;21337;-70
2021/03/22 05:30:21;;;;;;;;;;;;;;;-1.26;100.00;98292.52;1749355;82;20114;-70
2021/03/22 05:32:49;;;;;;;;;;;;;;;-1.25;100.00;98293.33;1749325;82;20149;-72
2021/03/22 05:35:20;;;;;;;;;;;;;;;-1.23;100.00;98295.25;1749353;82;20114;-72
2021/03/22 05:37:48;;;;;;;;;;;;;;;-1.19;100.00;98293.83;1749413;82;20157;-72
2021/03/22 05:40:25;;;;;;;;;;;;;;;-1.20;100.00;98299.61;1749342;82;21370;-70
2021/03/22 05:43:05;;;;;;;;;;;;;;;-1.21;100.00;98307.19;1745439;82;20194;-70
2021/03/22 05:45:49;;;;;;;;;;;;;;;-1.23;100.00;98311.84;1749347;82;20114;-71
2021/03/22 05:48:42;;;;;;;;;;;;;;;-1.25;100.00;98307.81;1742351;82;20225;-72
2021/03/22 05:51:33;;;;;;;;;;;;;;;-1.22;100.00;98311.36;1749427;82;20138;-72
2021/03/22 05:54:21;;;;;;;;;;;;;;;-1.26;100.00;98310.16;1749424;82;22674;-73
2021/03/22 05:57:14;;;;;;;;;;;;;;;-1.30;100.00;98305.31;1749241;82;20118;-73
2021/03/22 05:59:51;;;;;;;;;;;;;;;-1.25;100.00;98311.27;1749406;82;20613;-72
2021/03/22 06:02:40;;;;;;;;;;;;;;;-1.21;100.00;98308.50;1749298;82;20142;-72
2021/03/22 06:05:12;;;;;;;;;;;;;;;-1.16;100.00;98310.52;1749326;82;20480;-72
2021/03/22 06:07:44;;;;;;;;;;;;;;;-1.18;100.00;98308.08;1743992;82;22166;-73
2021/03/22 06:10:18;;;;;;;;;;;;;;;-1.15;100.00;98301.59;1749249;82;20146;-73
2021/03/22 06:13:00;;;;;;;;;;;;;;;-1.09;100.00;98299.45;1749299;82;20138;-71
2021/03/22 06:15:46;;;;;;;;;;;;;;;-1.04;100.00;98312.00;1749295;82;20114;-71
2021/03/22 06:18:36;;;;;;;;;;;;;;;-0.99;100.00;98315.61;1743901;82;20233;-71
2021/03/22 06:21:10;;;;;;;;;;;;;;;-0.96;100.00;98319.65;1748015;82;22208;-70
2021/03/22 06:23:43;;;;;;;;;;;;;;;-0.96;100.00;98321.77;1720595;82;20289;-71
2021/03/22 06:26:32;;;;;;;;;;;;;;;-1.07;100.00;98319.00;1747100;82;20277;-74
2021/03/22 06:29:03;;;;;;;;;;;;;;;-1.09;100.00;98318.69;1748172;82;20249;-71
2021/03/22 06:31:33;;;;;;;;;;;;;;;-1.09;100.00;98320.00;1748692;82;20305;-72
2021/03/22 06:34:05;;;;;;;;;;;;;;;-1.11;100.00;98314.64;1747626;82;21205;-72
2021/03/22 06:36:55;;;;;;;;;;;;;;;-1.04;100.00;98321.22;1748338;82;20174;-73
2021/03/22 06:39:23;;;;;;;;;;;;;;;-0.84;100.00;98316.66;1711597;82;20217;-72
2021/03/22 06:41:56;;;;;;;;;;;;;;;-0.69;100.00;98328.23;1740147;82;20260;-72
2021/03/22 06:44:37;;;;;;;;;;;;;;;-0.69;100.00;98329.03;1736326;82;20232;-73
2021/03/22 06:47:15;;;;;;;;;;;;;;;-0.68;100.00;98333.30;1748947;80;22311;-73
2021/03/22 06:49:49;;;;;;;;;;;;;;;-0.71;100.00;98336.85;1766050;80;20230;-72
2021/03/22 06:52:24;;;;;;;;;;;;;;;-0.70;100.00;98341.13;1785263;79;20290;-73
2021/03/22 06:54:56;;;;;;;;;;;;;;;-0.57;100.00;98336.28;1782877;80;20577;-72
2021/03/22 06:57:28;;;;;;;;;;;;;;;-0.52;100.00;98338.58;1782278;79;20552;-71
2021/03/22 07:00:19;;;;;;;;;;;;;;;-0.56;100.00;98343.19;1784894;80;21185;-71
2021/03/22 07:02:50;;;;;;;;;;;;;;;-0.52;100.00;98338.58;1776066;80;20230;-72
2021/03/22 07:05:24;;;;;;;;;;;;;;;-0.41;100.00;98336.31;1785347;79;20242;-73
2021/03/22 07:07:56;;;;;;;;;;;;;;;-0.22;100.00;98339.33;1785436;80;20306;-72
2021/03/22 07:10:29;;;;;;;;;;;;;;;-0.19;100.00;98344.69;1781003;79;20281;-74
2021/03/22 07:13:16;;;;;;;;;;;;;;;-0.17;100.00;98343.94;1785050;80;21370;-73
2021/03/22 07:15:45;;;;;;;;;;;;;;;-0.01;100.00;98344.73;1785124;80;20266;-73
2021/03/22 07:18:23;;;;;;;;;;;;;;;-0.04;100.00;98344.66;1785987;80;20275;-72
2021/03/22 07:20:59;;;;;;;;;;;;;;;0.01;100.00;98348.49;1757190;80;20235;-72
2021/03/22 07:23:30;;;;;;;;;;;;;;;-0.24;100.00;98351.39;1786009;80;20663;-72
2021/03/22 07:26:17;;;;;;;;;;;;;;;-0.31;100.00;98351.14;1785958;80;21360;-72
2021/03/22 07:29:05;;;;;;;;;;;;;;;-0.36;100.00;98357.57;1781366;80;20235;-73
2021/03/22 07:31:37;;;;;;;;;;;;;;;-0.35;100.00;98366.56;1786658;79;20135;-72
2021/03/22 07:34:25;;;;;;;;;;;;;;;-0.21;100.00;98364.66;1785233;80;20607;-72
2021/03/22 07:37:14;;;;;;;;;;;;;;;-0.30;100.00;98360.14;1786268;79;20292;-74
2021/03/22 07:39:47;;;;;;;;;;;;;;;-0.21;100.00;98360.71;1786311;80;21194;-73
2021/03/22 07:42:27;;;;;;;;;;;;;;;-0.19;100.00;98366.59;1786103;80;20624;-72
2021/03/22 07:45:16;;;;;;;;;;;;;;;-0.07;100.00;98360.12;1786325;79;20301;-71
2021/03/22 07:48:11;;;;;;;;;;;;;;;-0.13;100.00;98368.88;1786059;80;20218;-72
2021/03/22 07:50:43;;;;;;;;;;;;;;;0.07;100.00;98359.48;1786174;79;20238;-72
2021/03/22 07:53:15;;;;;;;;;;;;;;;0.12;100.00;98368.40;1754764;80;21370;-74
2021/03/22 07:55:51;;;;;;;;;;;;;;;0.18;100.00;98366.72;1755193;81;20569;-73
2021/03/22 07:58:29;;;;;;;;;;;;;;;0.10;100.00;98373.08;1755197;80;20499;-72
2021/03/22 08:01:03;;;;;;;;;;;;;;;0.08;100.00;98367.20;1755267;81;20768;-72
2021/03/22 08:03:59;;;;;;;;;;;;;;;0.02;100.00;98367.24;1754781;80;20190;-72
2021/03/22 08:06:37;;;;;;;;;;;;;;;-0.02;100.00;98361.60;1755395;80;22339;-73
2021/03/22 08:09:08;;;;;;;;;;;;;;;-0.04;100.00;98367.59;1755156;81;20224;-72
2021/03/22 08:11:54;;;;;;;;;;;;;;;0.04;100.00;98363.88;1752125;80;20185;-73
2021/03/22 08:14:32;;;;;;;;;;;;;;;-0.02;100.00;98366.88;1731586;81;20633;-73
2021/03/22 08:17:21;;;;;;;;;;;;;;;0.11;100.00;98373.36;1755155;80;20307;-73
2021/03/22 08:20:04;;;;;;;;;;;;;;;-0.05;100.00;98364.64;1754535;81;21365;-73
2021/03/22 08:22:43;;;;;;;;;;;;;;;-0.16;100.00;98360.88;1755226;81;20224;-72
2021/03/22 08:25:31;;;;;;;;;;;;;;;-0.06;100.00;98362.52;1754850;80;20156;-72
2021/03/22 08:28:27;;;;;;;;;;;;;;;0.09;100.00;98354.30;1853822;77;20221;-71
2021/03/22 08:31:04;;;;;;;;;;;;;;;0.12;100.00;98367.08;1821844;78;20221;-72
2021/03/22 08:33:56;;;;;;;;;;;;;;;0.36;100.00;98365.44;1821885;78;20830;-73
2021/03/22 08:36:38;;;;;;;;;;;;;;;0.58;100.00;98360.56;1821642;78;20140;-72
2021/03/22 08:39:24;;;;;;;;;;;;;;;0.61;100.00;98363.27;1820929;78;20224;-72
2021/03/22 08:42:21;;;;;;;;;;;;;;;0.70;100.00;98365.13;1821530;78;20279;-73
2021/03/22 08:45:22;;;;;;;;;;;;;;;0.91;100.00;98362.56;1821285;78;20108;-73
2021/03/22 08:48:13;;;;;;;;;;;;;;;0.95;100.00;98364.55;1821664;78;21194;-73
2021/03/22 08:50:41;;;;;;;;;;;;;;;0.70;100.00;98365.93;1758293;81;20141;-72
2021/03/22 08:53:13;;;;;;;;;;;;;;;0.52;100.00;98364.09;1763227;81;20129;-72
2021/03/22 08:55:48;;;;;;;;;;;;;;;0.54;100.00;98362.53;1762377;81;20241;-71
2021/03/22 08:58:43;;;;;;;;;;;;;;;0.45;100.00;98365.17;1762781;81;20236;-73
2021/03/22 09:01:34;;;;;;;;;;;;;;;0.50;100.00;98366.12;1759977;81;21209;-72
2021/03/22 09:04:22;;;;;;;;;;;;;;;0.44;100.00;98376.22;1761936;81;20539;-73
2021/03/22 09:07:07;;;;;;;;;;;;;;;0.55;100.00;98372.88;1762592;81;20225;-73
2021/03/22 09:09:40;;;;;;;;;;;;;;;0.71;100.00;98371.53;1762460;81;20451;-73
2021/03/22 09:12:29;;;;;;;;;;;;;;;0.67;100.00;98378.78;1762751;81;20256;-71
2021/03/22 09:14:58;;;;;;;;;;;;;;;0.70;100.00;98376.50;1749337;81;21226;-72
2021/03/22 09:17:39;;;;;;;;;;;;;;;0.64;100.00;98378.19;1762217;81;20307;-73
2021/03/22 09:20:23;;;;;;;;;;;;;;;0.55;100.00;98381.33;1761631;81;20224;-73
2021/03/22 09:22:54;;;;;;;;;;;;;;;0.42;100.00;98388.86;1763100;81;20229;-72
2021/03/22 09:25:48;;;;;;;;;;;;;;;0.35;100.00;98390.23;1762302;81;20263;-72
2021/03/22 09:28:29;;;;;;;;;;;;;;;0.38;100.00;98391.11;1762078;81;21221;-73
2021/03/22 09:30:59;;;;;;;;;;;;;;;0.36;100.00;98396.30;1762782;81;20711;-71
2021/03/22 09:33:55;;;;;;;;;;;;;;;0.43;100.00;98395.22;1762780;81;20324;-72
2021/03/22 09:36:35;;;;;;;;;;;;;;;0.58;100.00;98390.92;1762514;81;20267;-71
2021/03/22 09:39:09;;;;;;;;;;;;;;;0.63;100.00;98387.12;1761913;81;20582;-72
2021/03/22 09:41:54;;;;;;;;;;;;;;;0.72;100.00;98388.98;1762110;79;20340;-71
2021/03/22 09:44:26;;;;;;;;;;;;;;;0.96;100.00;98383.34;1652080;86;20901;-73
2021/03/22 09:47:05;;;;;;;;;;;;;;;1.19;100.00;98385.31;1651363;87;20343;-71
2021/03/22 09:50:00;;;;;;;;;;;;;;;1.28;100.00;98395.09;1649944;86;20327;-72
2021/03/22 09:52:40;;;;;;;;;;;;;;;1.34;100.00;98399.99;1853548;77;20241;-73
2021/03/22 09:55:30;;;;;;;;;;;;;;;1.31;100.00;98390.67;1822037;78;20518;-74
2021/03/22 09:58:00;;;;;;;;;;;;;;;0.94;100.00;98389.36;1821748;78;22621;-73
2021/03/22 10:00:37;;;;;;;;;;;;;;;0.89;100.00;98397.66;1816734;78;20141;-72
2021/03/22 10:03:30;;;;;;;;;;;;;;;0.96;100.00;98399.72;1816900;78;20499;-72
2021/03/22 10:06:00;;;;;;;;;;;;;;;1.32;100.00;98398.88;1814763;78;20732;-72
2021/03/22 10:08:30;;;;;;;;;;;;;;;1.46;100.00;98405.63;1815607;79;20236;-73
2021/03/22 10:11:29;;;;;;;;;;;;;;;1.57;100.00;98408.05;1851943;77;20331;-72
2021/03/22 10:13:59;;;;;;;;;;;;;;;1.42;100.00;98408.94;1821689;78;20192;-72
2021/03/22 10:16:35;;;;;;;;;;;;;;;1.15;100.00;98412.41;1790175;78;21274;-72
2021/03/22 10:19:07;;;;;;;;;;;;;;;1.12;100.00;98415.50;1819775;78;20160;-73
2021/03/22 10:21:37;;;;;;;;;;;;;;;1.13;100.00;98413.13;1821515;78;20168;-72
2021/03/22 10:24:28;;;;;;;;;;;;;;;1.13;100.00;98410.48;1821456;78;20176;-72
2021/03/22 10:26:57;;;;;;;;;;;;;;;1.19;100.00;98418.88;1821525;78;20298;-72
2021/03/22 10:29:29;;;;;;;;;;;;;;;1.18;100.00;98413.31;1821609;78;21944;-72
2021/03/22 10:32:07;;;;;;;;;;;;;;;1.08;100.00;98417.78;1820996;78;20591;-73
2021/03/22 10:34:45;;;;;;;;;;;;;;;1.13;100.00;98415.28;1821276;78;20137;-73
2021/03/22 10:37:29;;;;;;;;;;;;;;;1.25;100.00;98420.12;1821843;78;20227;-72
2021/03/22 10:40:00;;;;;;;;;;;;;;;1.34;100.00;98418.50;1821884;78;20530;-71
2021/03/22 10:42:39;;;;;;;;;;;;;;;1.48;100.00;98423.92;1821478;78;21920;-72
2021/03/22 10:45:26;;;;;;;;;;;;;;;1.41;100.00;98421.36;1821159;78;20160;-74
2021/03/22 10:47:56;;;;;;;;;;;;;;;1.29;100.00;98420.48;1821386;78;20204;-73
2021/03/22 10:50:31;;;;;;;;;;;;;;;1.20;100.00;98417.84;1821001;78;20236;-72
2021/03/22 10:53:09;;;;;;;;;;;;;;;1.16;100.00;98416.68;1820825;78;20622;-73
2021/03/22 10:55:42;;;;;;;;;;;;;;;1.15;100.00;98421.66;1821714;78;21782;-73
2021/03/22 10:58:27;;;;;;;;;;;;;;;1.07;100.00;98415.63;1821753;78;20133;-73
2021/03/22 11:01:03;;;;;;;;;;;;;;;0.94;100.00;98415.78;1821785;78;20188;-73
2021/03/22 11:03:31;;;;;;;;;;;;;;;0.75;100.00;98416.27;1822022;78;20539;-73
2021/03/22 11:05:59;;;;;;;;;;;;;;;0.71;100.00;98416.91;1821391;78;20284;-72
2021/03/22 11:08:32;;;;;;;;;;;;;;;0.75;100.00;98416.78;1821785;78;21354;-74
2021/03/22 11:11:09;;;;;;;;;;;;;;;0.80;100.00;98415.62;1818529;77;20266;-72
2021/03/22 11:13:47;;;;;;;;;;;;;;;0.96;100.00;98411.61;1810673;79;20161;-73
2021/03/22 11:16:26;;;;;;;;;;;;;;;1.00;100.00;98415.41;1809072;79;20294;-72
2021/03/22 11:18:55;;;;;;;;;;;;;;;1.04;100.00;98412.11;1809497;79;20298;-73
2021/03/22 11:21:26;;;;;;;;;;;;;;;1.14;100.00;98412.12;1809283;79;21200;-72
2021/03/22 11:23:57;;;;;;;;;;;;;;;1.22;100.00;98415.78;1808779;79;20317;-73
2021/03/22 11:26:30;;;;;;;;;;;;;;;1.28;100.00;98417.55;1808921;79;20137;-72
2021/03/22 11:29:18;;;;;;;;;;;;;;;1.45;100.00;98415.92;1808979;79;20232;-72
2021/03/22 11:31:49;;;;;;;;;;;;;;;1.55;100.00;98415.92;1807788;79;20290;-71
2021/03/22 11:34:30;;;;;;;;;;;;;;;1.45;100.00;98405.34;1829842;77;22394;-72
2021/03/22 11:37:01;;;;;;;;;;;;;;;1.41;100.00;98409.45;1822887;77;20285;-71
2021/03/22 11:39:34;;;;;;;;;;;;;;;1.51;100.00;98415.54;1826087;77;20301;-72
2021/03/22 11:42:05;;;;;;;;;;;;;;;1.64;100.00;98404.81;1833418;77;20556;-71
2021/03/22 11:44:38;;;;;;;;;;;;;;;1.66;100.00;98409.86;1824580;77;20282;-72
2021/03/22 11:47:39;;;;;;;;;;;;;;;1.71;100.00;98409.98;1824074;77;21356;-71
2021/03/22 11:50:41;;;;;;;;;;;;;;;1.98;100.00;98420.21;1798255;77;20202;-72
2021/03/22 11:53:21;;;;;;;;;;;;;;;1.96;100.00;98418.30;1807972;77;20579;-73
2021/03/22 11:55:53;;;;;;;;;;;;;;;2.00;100.00;98419.47;1829538;77;20299;-71
2021/03/22 11:58:39;;;;;;;;;;;;;;;1.96;100.00;98419.13;1817521;77;20331;-69
2021/03/22 12:01:17;;;;;;;;;;;;;;;1.88;100.00;98422.87;1823810;77;22285;-72
2021/03/22 12:03:48;;;;;;;;;;;;;;;1.75;100.00;98424.91;1815630;77;20317;-71
2021/03/22 12:06:20;;;;;;;;;;;;;;;1.45;100.00;98425.70;1824653;77;20293;-72
2021/03/22 12:08:51;;;;;;;;;;;;;;;1.39;100.00;98429.22;1840522;77;20273;-72
2021/03/22 12:11:25;;;;;;;;;;;;;;;1.30;100.00;98431.37;1849787;77;20321;-71
2021/03/22 12:13:59;;;;;;;;;;;;;;;1.22;100.00;98439.05;1849395;77;21537;-72
2021/03/22 12:16:34;;;;;;;;;;;;;;;1.00;100.00;98432.59;1849478;77;20293;-72
2021/03/22 12:19:22;;;;;;;;;;;;;;;0.93;100.00;98441.92;1849838;77;20233;-72
2021/03/22 12:21:50;;;;;;;;;;;;;;;0.90;100.00;98447.63;1850232;77;20293;-72
2021/03/22 12:24:20;;;;;;;;;;;;;;;0.85;100.00;98442.19;1846864;77;20261;-72
2021/03/22 12:26:47;;;;;;;;;;;;;;;0.80;100.00;98444.16;1823733;77;21343;-71
2021/03/22 12:29:15;;;;;;;;;;;;;;;0.74;100.00;98443.72;1850191;77;20706;-72
2021/03/22 12:31:47;;;;;;;;;;;;;;;0.73;100.00;98439.97;1850102;77;20242;-72
2021/03/22 12:34:22;;;;;;;;;;;;;;;0.75;100.00;98444.52;1850578;77;20506;-72
2021/03/22 12:36:50;;;;;;;;;;;;;;;0.70;100.00;98441.20;1850621;77;20250;-72
2021/03/22 12:39:45;;;;;;;;;;;;;;;0.69;100.00;98441.44;1849584;77;21243;-72
2021/03/22 12:42:14;;;;;;;;;;;;;;;0.69;100.00;98442.24;1701533;84;20340;-71
2021/03/22 12:44:43;;;;;;;;;;;;;;;0.74;100.00;98440.27;1702457;84;20344;-72
2021/03/22 12:47:19;;;;;;;;;;;;;;;0.78;100.00;98440.12;1702431;84;20299;-73
2021/03/22 12:49:47;;;;;;;;;;;;;;;0.83;100.00;98439.78;1703069;84;20256;-72
2021/03/22 12:52:15;;;;;;;;;;;;;;;0.86;100.00;98434.58;1702722;84;22137;-73
2021/03/22 12:54:46;;;;;;;;;;;;;;;0.81;100.00;98436.55;1704584;82;20332;-72
2021/03/22 12:57:19;;;;;;;;;;;;;;;0.76;100.00;98438.20;1702299;84;20256;-73
2021/03/22 12:59:46;;;;;;;;;;;;;;;0.76;100.00;98440.35;1701793;84;20640;-72
2021/03/22 13:02:18;;;;;;;;;;;;;;;0.74;100.00;98447.68;1701671;84;20363;-71
2021/03/22 13:04:47;;;;;;;;;;;;;;;0.78;100.00;98450.69;1701852;84;22153;-71
2021/03/22 13:07:18;;;;;;;;;;;;;;;0.78;100.00;98451.48;1757300;81;20259;-72
2021/03/22 13:09:48;;;;;;;;;;;;;;;0.86;100.00;98454.39;1759325;79;20727;-72
2021/03/22 13:12:22;;;;;;;;;;;;;;;0.90;100.00;98448.94;1750627;79;20318;-71
2021/03/22 13:14:50;;;;;;;;;;;;;;;0.92;100.00;98457.98;1772433;79;20255;-71
2021/03/22 13:17:18;;;;;;;;;;;;;;;0.90;100.00;98460.03;1771831;80;21188;-72
2021/03/22 13:19:46;;;;;;;;;;;;;;;0.84;100.00;98464.36;1765111;81;20606;-72